PITTSFIELD MILLS DAM SUNCOOK RIVER PITTSFIELD, NH: From 09/04/2018 16:00 to 09/19/2018 04:00

Date PRECIPITATION INCREMENT [IN] WATER TEMPERATURE [F] AIR TEMPERATURE [F] POOL ELEVATION [FT] RESERVOIR RELEASE [CFS]
09/18/2018 21:00 0.00 70.3 70.0 474.90 146.3
09/18/2018 20:00 0.00 70.5 75.0 474.89 143.3
09/18/2018 19:00 0.00 70.3 79.0 474.88 139.0
09/18/2018 18:00 0.00 70.3 78.0 474.88 135.0
09/18/2018 17:00 0.00 70.3 77.0 474.87 132.0
09/18/2018 16:00 0.00 70.3 76.0 474.86 128.3
09/18/2018 15:00 0.00 70.3 75.0 474.86 124.8
09/18/2018 14:00 0.01 70.3 72.0 474.84 119.5
09/18/2018 13:00 0.02 70.3 69.0 474.84 116.0
09/18/2018 12:00 0.07 70.3 67.0 474.83 112.5
09/18/2018 11:00 0.17 70.3 67.0 474.82 109.3
09/18/2018 10:00 0.31 70.3 67.0 474.81 102.5
09/18/2018 09:00 0.15 70.5 67.0 474.79 95.3
09/18/2018 08:00 0.06 70.2 67.0 474.78 93.8
09/18/2018 07:00 0.02 70.2 68.0 474.78 92.5
09/18/2018 06:00 0.02 70.2 68.0 474.78 93.3
09/18/2018 05:00 0.03 70.5 68.0 474.78 93.3
09/18/2018 04:00 0.01 70.2 67.0 474.78 93.8
09/18/2018 03:00 0.00 70.2 68.0 474.78 93.5
09/18/2018 02:00 0.00 70.5 67.0 474.78 94.0
09/18/2018 01:00 0.00 70.2 67.0 474.79 94.5
09/18/2018 00:00 0.00 70.2 68.0 474.78 95.0
09/17/2018 23:00 0.00 70.2 68.0 474.79 96.3
09/17/2018 22:00 0.00 70.2 68.0 474.79 97.5
09/17/2018 21:00 0.00 70.2 70.0 474.79 98.0
09/17/2018 20:00 0.00 70.0 73.0 474.79 99.8
09/17/2018 19:00 0.00 69.8 76.0 474.80 100.3
09/17/2018 18:00 0.00 69.6 79.0 474.80 100.8
09/17/2018 17:00 0.00 69.8 80.0 474.80 102.3
09/17/2018 16:00 0.00 69.6 81.0 474.80 102.3
09/17/2018 15:00 0.00 69.6 81.0 474.80 103.5
09/17/2018 14:00 0.00 69.6 81.0 474.81 105.0
09/17/2018 13:00 0.00 69.6 79.0 474.81 104.0
09/17/2018 12:00 0.00 69.4 76.0 474.81 106.3
09/17/2018 11:00 0.00 69.4 71.0 474.81 107.0
09/17/2018 10:00 0.00 69.6 66.0 474.81 108.5
09/17/2018 09:00 0.00 69.4 62.0 474.82 109.8
09/17/2018 08:00 0.00 69.4 61.0 474.82 110.0
09/17/2018 07:00 0.00 69.4 61.0 474.82 112.0
09/17/2018 06:00 0.00 69.4 62.0 474.82 112.5
09/17/2018 05:00 0.00 69.4 63.0 474.83 113.0
09/17/2018 04:00 0.00 69.4 64.0 474.83 114.0
09/17/2018 03:00 0.00 69.3 65.0 474.83 115.0
09/17/2018 02:00 0.00 69.3 65.0 474.83 116.0
09/17/2018 01:00 0.00 69.3 66.0 474.83 117.0
09/17/2018 00:00 0.00 69.3 68.0 474.84 117.5
09/16/2018 23:00 0.00 69.1 69.0 474.84 118.5
09/16/2018 22:00 0.00 69.3 71.0 474.84 119.0
09/16/2018 21:00 0.00 69.1 73.0 474.84 121.0
09/16/2018 20:00 0.00 68.9 78.0 474.84 121.5
09/16/2018 19:00 0.00 68.9 83.0 474.85 122.5
09/16/2018 18:00 0.00 68.7 84.0 474.85 125.0
09/16/2018 17:00 0.00 68.7 84.0 474.85 126.8
09/16/2018 16:00 0.00 68.9 83.0 474.86 127.5
09/16/2018 15:00 0.00 68.9 84.0 474.86 129.3
09/16/2018 14:00 0.00 68.9 83.0 474.86 130.0
09/16/2018 13:00 0.00 69.1 82.0 474.87 132.0
09/16/2018 12:00 0.00 69.1 77.0 474.87 132.3
09/16/2018 11:00 0.00 69.3 69.0 474.87 134.0
09/16/2018 10:00 0.00 69.6 63.0 474.87 135.0
09/16/2018 09:00 0.00 69.6 60.0 474.88 137.0
09/16/2018 08:00 0.00 69.6 59.0 474.88 138.0
09/16/2018 07:00 0.00 69.4 60.0 474.88 140.0
09/16/2018 06:00 0.00 69.4 60.0 474.88 140.5
09/16/2018 05:00 0.00 69.6 59.0 474.89 142.5
09/16/2018 04:00 0.00 69.4 59.0 474.89 143.0
09/16/2018 03:00 0.00 69.4 59.0 474.89 144.5
09/16/2018 02:00 0.00 69.3 60.0 474.89 145.5
09/16/2018 01:00 0.00 69.3 61.0 474.90 146.5
09/16/2018 00:00 0.00 69.1 62.0 474.90 148.5
09/15/2018 23:00 0.00 69.1 63.0 474.90 150.3
09/15/2018 22:00 0.00 69.1 65.0 474.91 152.0
09/15/2018 21:00 0.00 68.9 67.0 474.91 154.0
09/15/2018 20:00 0.00 68.7 72.0 474.91 155.8
09/15/2018 19:00 0.00 68.7 80.0 474.91 157.0
09/15/2018 18:00 0.00 68.7 78.0 474.92 159.0
09/15/2018 17:00 0.00 68.5 78.0 474.92 160.3
09/15/2018 16:00 0.00 68.5 75.0 474.92 162.0
09/15/2018 15:00 0.00 68.5 74.0 474.93 163.5
09/15/2018 14:00 0.00 68.5 69.0 474.93 165.5
09/15/2018 13:00 0.00 68.5 67.0 474.93 167.3
09/15/2018 12:00 0.00 68.5 65.0 474.94 169.0
09/15/2018 11:00 0.00 68.5 64.0 474.94 170.5
09/15/2018 10:00 0.00 68.5 63.0 474.94 172.5
09/15/2018 09:00 0.00 68.9 63.0 474.95 174.5
09/15/2018 08:00 0.01 68.9 62.0 474.95 176.0
09/15/2018 07:00 0.00 68.9 62.0 474.95 178.0
09/15/2018 06:00 0.00 68.9 61.0 474.96 179.5
09/15/2018 05:00 0.00 68.9 60.0 474.96 181.5
09/15/2018 04:00 0.00 68.9 60.0 474.96 183.5
09/15/2018 03:00 0.00 69.1 59.0 474.97 185.0
09/15/2018 02:00 0.00 68.9 59.0 474.97 187.5
09/15/2018 01:00 0.00 68.7 58.0 474.97 188.8
09/15/2018 00:00 0.00 68.4 60.0 474.98 191.0
09/14/2018 23:00 0.00 68.4 61.0 474.98 193.5
09/14/2018 22:00 0.00 68.2 63.0 474.99 196.5
09/14/2018 21:00 0.00 68.0 66.0 474.99 198.5
09/14/2018 20:00 0.00 67.8 73.0 475.00 201.5
09/14/2018 19:00 0.00 67.8 80.0 475.00 204.5
09/14/2018 18:00 0.00 67.6 79.0 475.01 207.5
09/14/2018 17:00 0.00 67.6 78.0 475.01 209.5
09/14/2018 16:00 0.00 67.6 78.0 475.02 211.5
09/14/2018 15:00 0.00 67.5 75.0 475.02 214.0
09/14/2018 14:00 0.00 67.5 72.0 475.02 215.5
09/14/2018 13:00 0.00 67.3 67.0 475.03 218.5
09/14/2018 12:00 0.00 67.3 64.0 475.03 220.8
09/14/2018 11:00 0.00 67.3 63.0 475.04 223.5
09/14/2018 10:00 0.00 67.3 60.0 475.04 226.0
09/14/2018 09:00 0.00 67.3 59.0 475.05 228.5
09/14/2018 08:00 0.00 67.3 59.0 475.05 231.0
09/14/2018 07:00 0.00 67.3 59.0 475.05 234.0
09/14/2018 06:00 0.00 67.3 59.0 475.06 237.5
09/14/2018 05:00 0.00 67.3 59.0 475.07 241.0
09/14/2018 04:00 0.00 67.3 60.0 475.07 243.0
09/14/2018 03:00 0.00 67.5 60.0 475.08 246.3
09/14/2018 02:00 0.00 67.5 61.0 475.08 248.5
09/14/2018 01:00 0.00 67.5 61.0 475.09 252.5
09/14/2018 00:00 0.00 67.3 61.0 475.09 256.0
09/13/2018 23:00 0.00 67.3 63.0 475.10 260.0
09/13/2018 22:00 0.00 67.1 64.0 475.11 264.0
09/13/2018 21:00 0.00 66.7 67.0 475.11 267.5
09/13/2018 20:00 0.00 66.6 72.0 475.12 271.0
09/13/2018 19:00 0.00 66.4 76.0 475.12 274.0
09/13/2018 18:00 0.00 66.4 79.0 475.13 277.5
09/13/2018 17:00 0.00 66.2 78.0 475.13 280.0
09/13/2018 16:00 0.00 66.0 75.0 475.14 285.0
09/13/2018 15:00 0.00 66.0 71.0 475.14 288.0
09/13/2018 14:00 0.00 66.0 71.0 475.14 290.5
09/13/2018 13:00 0.00 65.8 70.0 475.15 295.0
09/13/2018 12:00 0.00 65.7 66.0 475.16 299.0
09/13/2018 11:00 0.00 65.7 66.0 475.16 304.0
09/13/2018 10:00 0.01 65.7 64.0 475.17 307.0
09/13/2018 09:00 0.00 65.7 63.0 475.18 310.5
09/13/2018 08:00 0.01 65.5 62.0 475.18 314.0
09/13/2018 07:00 0.13 65.5 62.0 475.19 317.5
09/13/2018 06:00 0.00 65.5 63.0 475.19 316.5
09/13/2018 05:00 0.00 65.3 63.0 475.19 319.5
09/13/2018 04:00 0.00 65.3 63.0 475.20 323.5
09/13/2018 03:00 0.00 65.3 63.0 475.20 326.5
09/13/2018 02:00 0.00 65.3 63.0 475.20 329.0
09/13/2018 01:00 0.00 65.3 64.0 475.21 332.0
09/13/2018 00:00 0.00 65.1 64.0 475.21 334.5
09/12/2018 23:00 0.00 65.1 64.0 475.22 339.0
09/12/2018 22:00 0.00 65.1 64.0 475.22 341.5
09/12/2018 21:00 0.00 65.1 64.0 475.23 343.5
09/12/2018 20:00 0.00 64.9 65.0 475.23 346.3
09/12/2018 19:00 0.00 64.8 66.0 475.23 348.5
09/12/2018 18:00 0.00 64.8 67.0 475.24 350.0
09/12/2018 17:00 0.00 64.6 66.0 475.24 351.0
09/12/2018 16:00 0.00 64.6 66.0 475.24 353.0
09/12/2018 15:00 0.00 64.6 65.0 475.24 354.0
09/12/2018 14:00 0.00 64.6 65.0 475.25 357.3
09/12/2018 13:00 0.00 64.4 65.0 475.25 358.5
09/12/2018 12:00 0.13 64.4 65.0 475.25 363.3
09/12/2018 11:00 0.08 64.4 66.0 475.25 359.5
09/12/2018 10:00 0.00 64.4 66.0 475.25 362.5
09/12/2018 09:00 0.00 64.4 66.0 475.26 368.0
09/12/2018 08:00 0.00 64.4 65.0 475.27 372.5
09/12/2018 07:00 0.00 64.6 65.0 475.28 377.0
09/12/2018 06:00 0.00 64.6 65.0 475.28 381.0
09/12/2018 05:00 0.00 64.8 65.0 475.29 386.0
09/12/2018 04:00 0.00 65.1 65.0 475.30 390.0
09/12/2018 03:00 0.00 65.3 65.0 475.30 395.5
09/12/2018 02:00 0.00 65.5 65.0 475.31 399.5
09/12/2018 01:00 0.00 65.7 65.0 475.32 403.5
09/12/2018 00:00 0.00 66.0 65.0 475.32 405.5
09/11/2018 23:00 0.00 66.2 65.0 475.32 407.0
09/11/2018 22:00 0.00 66.0 66.0 475.33 409.3
09/11/2018 21:00 0.00 66.0 67.0 475.32 407.8
09/11/2018 20:00 0.00 65.7 69.0 475.32 406.0
09/11/2018 19:00 0.00 65.1 71.0 475.32 402.0
09/11/2018 18:00 0.00 64.9 71.0 475.31 395.5
09/11/2018 17:00 0.00 64.6 72.0 475.30 388.0
09/11/2018 16:00 0.00 64.4 72.0 475.28 375.5
09/11/2018 15:00 0.00 64.4 70.0 475.27 363.3
09/11/2018 14:00 0.00 64.6 67.0 475.24 346.5
09/11/2018 13:00 0.00 64.6 65.0 475.21 326.3
09/11/2018 12:00 0.00 64.8 62.0 475.18 302.0
09/11/2018 11:00 0.00 64.9 61.0 475.14 273.8
09/11/2018 10:00 0.00 65.3 60.0 475.10 250.3
09/11/2018 09:00 0.00 65.8 59.0 475.06 223.5
09/11/2018 08:00 0.01 66.6 58.0 475.01 194.8
09/11/2018 07:00 0.03 66.9 58.0 474.95 165.5
09/11/2018 06:00 0.27 67.1 58.0 474.90 134.0
09/11/2018 05:00 0.12 67.5 58.0 474.82 103.0
09/11/2018 04:00 0.20 68.0 58.0 474.77 81.3
09/11/2018 03:00 0.43 68.2 57.0 474.72 62.3
09/11/2018 02:00 0.40 68.4 58.0 474.68 49.8
09/11/2018 01:00 0.39 68.5 58.0 474.64 36.0
09/11/2018 00:00 0.25 68.5 58.0 474.61 26.8
09/10/2018 23:00 0.08 68.5 58.0 474.59 24.5
09/10/2018 22:00 0.20 68.9 58.0 474.59 22.5
09/10/2018 21:00 0.11 68.9 58.0 474.58 19.8
09/10/2018 20:00 0.05 68.9 58.0 474.57 18.0
09/10/2018 19:00 0.01 68.9 59.0 474.57 18.0
09/10/2018 18:00 0.00 68.9 60.0 474.55 17.5
09/10/2018 17:00 0.00 68.9 61.0 474.56 18.5
09/10/2018 16:00 0.00 68.9 63.0 474.56 18.0
09/10/2018 15:00 0.00 69.3 63.0 474.57 17.8
09/10/2018 14:00 0.00 69.1 62.0 474.57 17.0
09/10/2018 13:00 0.00 69.1 60.0 474.56 16.8
09/10/2018 12:00 0.00 69.1 57.0 474.57 18.0
09/10/2018 11:00 0.00 69.1 54.0 474.56 18.0
09/10/2018 10:00 0.00 69.1 51.0 474.57 18.0
09/10/2018 09:00 0.00 69.3 49.0 474.56 18.0
09/10/2018 08:00 0.00 69.3 47.0 474.57 18.0
09/10/2018 07:00 0.00 69.4 47.0 474.57 18.0
09/10/2018 06:00 0.00 69.4 47.0 474.57 18.0
09/10/2018 05:00 0.00 69.6 46.0 474.57 18.0
09/10/2018 04:00 0.00 69.8 46.0 474.57 18.0
09/10/2018 03:00 0.00 70.0 46.0 474.57 18.0
09/10/2018 02:00 0.00 69.8 47.0 474.57 18.5
09/10/2018 01:00 0.00 70.0 48.0 474.57 19.0
09/10/2018 00:00 0.00 70.0 49.0 474.57 19.0
09/09/2018 23:00 0.00 70.2 50.0 474.57 19.0
09/09/2018 22:00 0.00 70.3 51.0 474.57 19.0
09/09/2018 21:00 0.00 70.5 54.0 474.57 19.0
09/09/2018 20:00 0.00 70.7 57.0 474.57 19.0
09/09/2018 19:00 0.00 70.9 60.0 474.57 19.8
09/09/2018 18:00 0.00 71.2 61.0 474.57 20.0
09/09/2018 17:00 0.00 71.4 61.0 474.57 20.0
09/09/2018 16:00 0.00 71.4 60.0 474.57 20.3
09/09/2018 15:00 0.00 71.6 59.0 474.58 21.0
09/09/2018 14:00 0.00 71.8 59.0 474.57 20.8
09/09/2018 13:00 0.00 71.6 58.0 474.58 20.8
09/09/2018 12:00 0.00 71.4 57.0 474.58 21.8
09/09/2018 11:00 0.00 71.6 55.0 474.58 22.3
09/09/2018 10:00 0.00 71.6 53.0 474.58 22.0
09/09/2018 09:00 0.00 71.6 47.0 474.58 23.0
09/09/2018 08:00 0.00 71.8 45.0 474.58 22.8
09/09/2018 07:00 0.00 72.0 46.0 474.58 23.0
09/09/2018 06:00 0.00 72.1 47.0 474.58 23.0
09/09/2018 05:00 0.00 72.1 47.0 474.58 23.0
09/09/2018 04:00 0.00 72.5 48.0 474.59 24.0
09/09/2018 03:00 0.00 72.7 50.0 474.59 24.0
09/09/2018 02:00 0.00 72.7 49.0 474.59 24.0
09/09/2018 01:00 0.00 72.9 50.0 474.59 24.0
09/09/2018 00:00 0.00 72.9 50.2 474.59 24.0
09/08/2018 23:00 0.00 72.9 50.5 474.59 24.0
09/08/2018 22:00 0.00 72.9 50.7 474.59 24.0
09/08/2018 21:00 0.00 73.0 50.9 474.59 24.0
09/08/2018 20:00 0.00 73.0 51.1 474.59 24.0
09/08/2018 19:00 0.00 73.0 51.4 474.59 24.0
09/08/2018 18:00 0.00 73.0 51.6 474.59 24.0
09/08/2018 17:00 0.00 73.0 51.8 474.59 24.0
09/08/2018 16:00 0.00 73.0 52.0 474.59 24.0
09/08/2018 15:00 0.00 73.0 52.3 474.59 24.0
09/08/2018 14:00 0.00 73.0 52.5 474.59 24.0
09/08/2018 13:00 0.00 73.0 52.7 474.59 24.0
09/08/2018 12:00 0.00 73.1 52.9 474.59 24.0
09/08/2018 11:00 0.00 73.1 53.1 474.59 24.0
09/08/2018 10:00 0.00 73.1 53.4 474.59 24.0
09/08/2018 09:00 0.00 73.1 53.6 474.59 24.0
09/08/2018 08:00 0.00 73.1 53.8 474.59 24.0
09/08/2018 07:00 0.00 73.1 54.0 474.59 24.0
09/08/2018 06:00 0.00 73.1 54.3 474.59 24.0
09/08/2018 05:00 0.00 73.2 54.5 474.60 24.0
09/08/2018 04:00 0.00 73.2 54.7 474.60 24.0
09/08/2018 03:00 0.00 73.2 55.0 474.60 24.0
09/08/2018 02:00 0.00 73.2 55.2 474.60 24.0
09/08/2018 01:00 0.00 73.2 55.4 474.60 24.0
09/08/2018 00:00 0.00 73.2 55.6 474.60 24.0
09/07/2018 23:00 0.00 73.2 55.9 474.60 24.0
09/07/2018 22:00 0.00 73.2 56.1 474.60 24.0
09/07/2018 21:00 0.00 73.3 56.3 474.60 24.0
09/07/2018 20:00 0.00 73.3 56.5 474.60 24.0
09/07/2018 19:00 0.00 73.3 56.8 474.60 24.0
09/07/2018 18:00 0.00 73.3 57.0 474.60 24.0
09/07/2018 17:00 0.00 73.3 57.2 474.60 24.0
09/07/2018 16:00 0.00 73.3 57.4 474.60 24.0
09/07/2018 15:00 0.00 73.3 57.6 474.60 24.0
09/07/2018 14:00 0.00 73.3 57.9 474.60 24.0
09/07/2018 13:00 0.00 73.3 58.1 474.60 24.0
09/07/2018 12:00 0.00 73.4 58.3 474.60 24.0
09/07/2018 11:00 0.00 73.4 58.5 474.60 24.0
09/07/2018 10:00 0.00 73.4 58.8 474.60 24.0
09/07/2018 09:00 0.00 73.4 59.0 474.60 27.0
09/07/2018 08:00 0.00 73.4 58.0 474.60 27.0
09/07/2018 07:00 0.00 73.4 59.0 474.60 27.0
09/07/2018 06:00 0.00 73.2 60.0 474.60 27.0
09/07/2018 05:00 0.00 73.4 61.0 474.60 27.0
09/07/2018 04:00 0.00 73.6 62.0 474.60 26.5
09/07/2018 03:00 0.00 73.4 64.0 474.60 26.5
09/07/2018 02:00 0.00 73.4 65.0 474.60 26.5
09/07/2018 01:00 0.00 73.6 66.0 474.60 26.0
09/07/2018 00:00 0.00 73.6 67.0 474.60 26.0
09/06/2018 23:00 0.00 73.6 69.0 474.59 25.3
09/06/2018 22:00 0.00 73.8 71.0 474.59 25.3
09/06/2018 21:00 0.00 73.8 72.0 474.59 25.0
09/06/2018 20:00 0.00 73.6 74.0 474.59 25.0
09/06/2018 19:00 0.00 73.6 74.0 474.59 25.0
09/06/2018 18:00 0.00 73.4 73.0 474.59 24.8
09/06/2018 17:00 0.01 73.2 75.0 474.59 25.0
09/06/2018 16:00 0.05 72.9 74.0 474.59 24.5
09/06/2018 15:00 0.00 73.2 77.0 474.59 24.3
09/06/2018 14:00 0.00 72.7 88.0 474.59 24.3
09/06/2018 13:00 0.00 73.0 87.0 474.59 24.8
09/06/2018 12:00 0.00 73.0 86.0 474.59 25.0
09/06/2018 11:00 0.00 72.9 82.0 474.59 25.0
09/06/2018 10:00 0.00 73.2 76.0 474.59 25.0
09/06/2018 09:00 0.00 73.4 73.0 474.59 25.0
09/06/2018 08:00 0.00 73.2 72.0 474.59 25.0
09/06/2018 07:00 0.00 73.2 72.0 474.59 25.3
09/06/2018 06:00 0.00 73.2 73.0 474.60 25.5
09/06/2018 05:00 0.00 73.2 73.0 474.60 25.8
09/06/2018 04:00 0.00 73.2 73.0 474.59 25.0
09/06/2018 03:00 0.00 73.4 73.0 474.59 25.8
09/06/2018 02:00 0.00 73.4 74.0 474.59 25.0
09/06/2018 01:00 0.00 73.4 75.0 474.59 25.0
09/06/2018 00:00 0.00 73.6 75.0 474.59 25.3
09/05/2018 23:00 0.00 73.4 74.0 474.59 25.8
09/05/2018 22:00 0.00 73.2 76.0 474.59 25.8
09/05/2018 21:00 0.00 73.2 78.0 474.60 26.0
09/05/2018 20:00 0.00 73.0 85.0 474.60 26.0
09/05/2018 19:00 0.00 72.9 89.0 474.60 26.5
09/05/2018 18:00 0.00 73.2 89.0 474.60 26.0
09/05/2018 17:00 0.00 72.9 88.0 474.60 26.8
09/05/2018 16:00 0.00 72.7 87.0 474.60 26.5
09/05/2018 15:00 0.00 72.7 85.0 474.60 27.0
09/05/2018 14:00 0.00 72.5 85.0 474.60 28.0
09/05/2018 13:00 0.00 72.7 80.0 474.60 28.0
09/05/2018 12:00 0.00 72.9 75.0 474.60 28.0
09/05/2018 11:00 0.00 72.9 72.0 474.60 28.0
09/05/2018 10:00 0.00 73.0 65.0 474.60 28.0
09/05/2018 09:00 0.00 73.0 63.0 474.60 28.0
09/05/2018 08:00 0.00 73.0 62.0 474.61 --
09/05/2018 07:00 0.00 73.0 62.0 474.61 29.0
09/05/2018 06:00 0.00 73.1 62.3 474.61 29.0
09/05/2018 05:00 0.00 73.1 62.7 474.61 29.0
09/05/2018 04:00 0.00 73.2 63.0 474.61 29.0
09/05/2018 03:00 0.00 73.0 63.0 474.61 29.5
09/05/2018 02:00 0.00 73.0 64.0 474.61 29.5
09/05/2018 01:00 0.00 73.0 65.0 474.61 29.8
09/05/2018 00:00 0.00 73.2 66.0 474.61 29.8
09/04/2018 23:00 0.00 73.0 67.0 474.61 29.3
09/04/2018 22:00 0.00 72.9 69.0 474.61 29.5
09/04/2018 21:00 -- -- -- -- --
09/04/2018 20:00 -- -- -- -- --
09/04/2018 19:00 -- -- -- -- --
09/04/2018 18:00 -- -- -- -- --
09/04/2018 17:00 -- -- -- -- --
09/04/2018 16:00 -- -- -- -- --